Time;durP1;ratioP1;P1;durP2;ratioP2;P2;SDS_P1;SDS_P2;PMS_P1;PMS_P2;Temp;Humidity;BMP_temperature;BMP_pressure;BME280_temperature;BME280_humidity;BME280_pressure;Samples;Min_cycle;Max_cycle;Signal;HPM_P1;HPM_P2
2023/03/01 00:02:14;;;;;;;11.17;5.27;;;1.30;99.90;;;;;;10340397;28;20225;-84
2023/03/01 00:07:36;;;;;;;13.23;5.30;;;1.30;99.90;;;;;;10339359;28;20213;-85
2023/03/01 00:12:57;;;;;;;11.50;5.37;;;1.30;99.90;;;;;;10326879;28;20521;-85
2023/03/01 00:18:18;;;;;;;13.07;6.37;;;1.20;99.90;;;;;;10340145;28;20201;-84
2023/03/01 00:23:40;;;;;;;15.87;7.87;;;1.10;99.90;;;;;;10353178;28;20237;-85
2023/03/01 00:29:01;;;;;;;20.53;8.57;;;1.10;99.90;;;;;;10356176;28;20210;-84
2023/03/01 00:34:22;;;;;;;15.30;7.30;;;1.10;99.90;;;;;;10342735;28;20253;-85
2023/03/01 00:39:46;;;;;;;14.00;6.53;;;1.20;99.90;;;;;;10388707;28;20233;-84
2023/03/01 00:45:09;;;;;;;10.30;4.90;;;1.20;99.90;;;;;;10348299;28;20269;-85
2023/03/01 00:50:30;;;;;;;11.47;4.80;;;1.30;99.90;;;;;;10346785;28;20198;-85
2023/03/01 00:55:51;;;;;;;12.13;4.40;;;1.40;99.90;;;;;;10332275;28;20230;-85
2023/03/01 01:01:19;;;;;;;10.00;4.13;;;1.40;99.90;;;;;;10332990;28;20509;-84
2023/03/01 01:06:45;;;;;;;7.07;4.13;;;1.40;99.90;;;;;;10332515;28;20573;-84
2023/03/01 01:12:07;;;;;;;7.03;3.90;;;1.30;99.90;;;;;;10360383;28;20520;-84
2023/03/01 01:17:28;;;;;;;7.47;4.20;;;1.30;99.90;;;;;;10345495;28;20223;-84
2023/03/01 01:28:48;;;;;;;9.50;5.00;;;1.20;99.90;;;;;;10128811;24;20275;-84
2023/03/01 01:34:17;;;;;;;13.10;5.57;;;1.10;99.90;;;;;;9870828;30;20269;-84
2023/03/01 01:39:38;;;;;;;10.30;5.33;;;1.00;99.90;;;;;;9882864;30;20206;-85
2023/03/01 01:45:25;;;;;;;11.17;5.27;;;1.00;99.90;;;;;;9868522;30;20480;-84
2023/03/01 01:50:54;;;;;;;6.90;3.63;;;1.10;99.90;;;;;;9869984;30;20225;-86
2023/03/01 01:56:18;;;;;;;8.50;3.87;;;1.10;99.90;;;;;;9869475;30;20213;-85
2023/03/01 02:01:39;;;;;;;6.97;3.93;;;1.20;99.90;;;;;;9846380;30;20219;-85
2023/03/01 02:07:14;;;;;;;7.13;4.00;;;1.10;99.90;;;;;;9845362;30;20237;-85
2023/03/01 02:12:37;;;;;;;8.53;4.00;;;1.10;99.90;;;;;;9881231;30;20264;-86
2023/03/01 02:17:59;;;;;;;10.23;4.40;;;1.10;99.90;;;;;;9879474;30;20226;-85
2023/03/01 02:23:20;;;;;;;8.47;4.60;;;1.10;99.90;;;;;;9880707;30;20238;-86
2023/03/01 02:28:44;;;;;;;11.43;4.97;;;1.20;99.90;;;;;;9883335;30;20237;-86
2023/03/01 02:34:07;;;;;;;10.20;4.30;;;1.20;99.90;;;;;;9867498;30;20227;-85
2023/03/01 02:39:33;;;;;;;10.47;5.10;;;1.20;99.90;;;;;;9842354;30;20235;-87
2023/03/01 02:44:54;;;;;;;8.87;4.50;;;1.20;99.90;;;;;;9843677;30;20404;-86
2023/03/01 02:50:39;;;;;;;7.17;4.30;;;1.20;99.90;;;;;;9852280;30;20217;-89
2023/03/01 02:56:01;;;;;;;9.23;3.90;;;1.20;99.90;;;;;;9867765;30;20504;-85
2023/03/01 03:01:36;;;;;;;7.47;4.30;;;1.30;99.90;;;;;;9892797;30;20190;-86
2023/03/01 03:06:58;;;;;;;11.37;5.37;;;1.30;99.90;;;;;;9875526;30;20265;-85
2023/03/01 03:12:20;;;;;;;11.97;5.37;;;1.30;99.90;;;;;;9834064;30;20208;-84
2023/03/01 03:17:42;;;;;;;18.47;7.47;;;1.30;99.90;;;;;;9844696;30;20213;-89
2023/03/01 03:23:05;;;;;;;14.53;7.10;;;1.50;99.90;;;;;;9878913;29;20277;-88
2023/03/01 03:28:28;;;;;;;16.43;6.87;;;1.60;99.90;;;;;;9860143;30;20297;-85
2023/03/01 03:33:49;;;;;;;18.43;8.20;;;1.70;99.90;;;;;;9846988;30;20477;-85
2023/03/01 03:39:10;;;;;;;15.03;6.27;;;1.80;99.90;;;;;;9864209;30;20247;-85
2023/03/01 03:44:32;;;;;;;16.50;8.20;;;1.80;99.90;;;;;;9865931;30;20232;-86
2023/03/01 03:49:53;;;;;;;18.03;7.50;;;1.90;99.90;;;;;;9844301;30;20261;-85
2023/03/01 03:55:19;;;;;;;16.53;8.33;;;2.00;99.90;;;;;;9894214;30;20288;-86
2023/03/01 04:00:42;;;;;;;20.70;10.20;;;2.00;99.90;;;;;;9898187;30;20386;-85
2023/03/01 04:06:05;;;;;;;20.13;10.00;;;1.90;99.90;;;;;;9877974;30;20261;-85
2023/03/01 04:11:26;;;;;;;17.83;9.77;;;1.90;99.90;;;;;;9893682;29;20232;-86
2023/03/01 04:16:47;;;;;;;26.80;10.80;;;1.90;99.90;;;;;;9935040;30;20209;-85
2023/03/01 04:22:11;;;;;;;21.53;11.00;;;1.90;99.90;;;;;;9922267;30;20222;-87
2023/03/01 04:27:33;;;;;;;22.50;10.83;;;1.90;99.90;;;;;;9872091;30;20246;-85
2023/03/01 04:32:55;;;;;;;24.07;11.13;;;2.00;99.90;;;;;;9872235;30;20504;-85
2023/03/01 04:38:20;;;;;;;22.17;10.00;;;2.00;99.90;;;;;;9871452;30;20317;-86
2023/03/01 04:43:42;;;;;;;22.87;10.90;;;2.00;99.90;;;;;;9889016;30;20218;-85
2023/03/01 04:49:03;;;;;;;22.83;10.77;;;2.00;99.90;;;;;;9872709;30;20210;-84
2023/03/01 04:54:24;;;;;;;19.80;11.07;;;2.10;99.90;;;;;;9895091;29;20206;-86
2023/03/01 04:59:46;;;;;;;24.17;11.50;;;2.00;99.90;;;;;;9860925;30;20208;-85
2023/03/01 05:05:07;;;;;;;29.63;13.57;;;2.10;99.90;;;;;;9860674;30;20245;-83
2023/03/01 05:10:30;;;;;;;28.30;12.73;;;2.10;99.90;;;;;;9870067;30;20206;-85
2023/03/01 05:16:01;;;;;;;29.33;13.67;;;2.10;99.90;;;;;;9883373;30;20211;-84
2023/03/01 05:21:22;;;;;;;27.70;14.33;;;2.10;99.90;;;;;;9882550;30;20214;-84
2023/03/01 05:26:48;;;;;;;31.63;13.47;;;2.00;99.90;;;;;;9910217;30;20257;-84
2023/03/01 05:32:15;;;;;;;31.10;15.40;;;2.00;99.90;;;;;;9868838;30;20230;-84
2023/03/01 05:37:36;;;;;;;29.57;13.97;;;2.00;99.90;;;;;;9881855;30;20225;-85
2023/03/01 05:42:58;;;;;;;27.10;13.73;;;1.90;99.90;;;;;;9884196;29;20229;-85
2023/03/01 05:48:19;;;;;;;25.20;14.13;;;2.00;99.90;;;;;;9874415;30;20211;-85
2023/03/01 05:53:41;;;;;;;27.87;14.40;;;1.90;99.90;;;;;;9908538;30;20191;-86
2023/03/01 05:59:04;;;;;;;29.73;14.40;;;1.90;99.90;;;;;;9881316;29;20210;-85
2023/03/01 06:04:26;;;;;;;20.37;12.80;;;1.90;99.90;;;;;;9883589;30;20533;-86
2023/03/01 06:09:47;;;;;;;24.20;13.40;;;2.00;99.90;;;;;;9859704;30;20217;-85
2023/03/01 06:15:10;;;;;;;24.53;13.63;;;1.90;99.90;;;;;;9870674;30;20206;-87
2023/03/01 06:20:31;;;;;;;23.83;12.93;;;1.90;99.90;;;;;;9882641;30;20285;-86
2023/03/01 06:25:53;;;;;;;25.27;12.77;;;1.90;99.90;;;;;;9880869;30;20265;-89
2023/03/01 06:31:14;;;;;;;21.30;12.60;;;2.00;99.90;;;;;;9859892;30;20205;-86
2023/03/01 06:36:35;;;;;;;29.10;14.43;;;2.00;99.90;;;;;;9831516;30;20213;-84
2023/03/01 06:41:56;;;;;;;21.50;12.93;;;2.10;99.90;;;;;;9870833;30;20278;-86
2023/03/01 06:47:18;;;;;;;23.83;13.53;;;2.00;99.90;;;;;;9868222;30;20533;-85
2023/03/01 06:52:39;;;;;;;28.10;15.30;;;2.00;99.90;;;;;;9868186;30;20226;-85
2023/03/01 06:58:02;;;;;;;26.03;14.27;;;2.00;99.90;;;;;;9858213;30;20234;-85
2023/03/01 07:03:24;;;;;;;40.60;20.80;;;2.00;99.90;;;;;;9863717;30;20274;-85
2023/03/01 07:08:46;;;;;;;59.80;28.27;;;2.10;99.90;;;;;;9857596;30;20282;-84
2023/03/01 07:14:07;;;;;;;65.73;31.53;;;2.20;99.90;;;;;;9877008;30;20542;-85
2023/03/01 07:19:28;;;;;;;101.87;43.43;;;2.20;99.90;;;;;;9879978;30;20207;-84
2023/03/01 07:24:50;;;;;;;105.60;41.40;;;2.10;99.90;;;;;;9867922;30;20241;-84
2023/03/01 07:30:11;;;;;;;44.30;18.93;;;2.00;99.90;;;;;;9878856;30;20388;-85
2023/03/01 07:35:33;;;;;;;209.03;73.90;;;2.10;99.90;;;;;;9867036;30;20338;-85
2023/03/01 07:40:59;;;;;;;307.13;113.57;;;2.20;99.90;;;;;;9884311;30;20224;-85
2023/03/01 07:46:20;;;;;;;48.13;25.93;;;2.20;99.90;;;;;;9883973;29;20238;-85
2023/03/01 07:51:43;;;;;;;33.23;17.67;;;2.30;99.90;;;;;;9918120;29;20198;-84
2023/03/01 07:57:05;;;;;;;26.60;13.00;;;2.50;99.90;;;;;;9890803;30;21460;-84
2023/03/01 08:02:26;;;;;;;19.40;11.70;;;2.60;99.90;;;;;;9886800;30;20235;-84
2023/03/01 08:07:47;;;;;;;22.80;12.23;;;2.60;99.90;;;;;;9873400;30;20673;-90
2023/03/01 08:13:09;;;;;;;19.77;11.57;;;2.80;99.90;;;;;;9877993;29;20242;-85
2023/03/01 08:18:31;;;;;;;19.97;10.63;;;2.80;99.90;;;;;;9881648;30;20233;-88
2023/03/01 08:23:52;;;;;;;22.60;12.53;;;2.90;99.90;;;;;;9894634;30;20227;-87
2023/03/01 08:29:13;;;;;;;16.67;9.80;;;3.00;99.90;;;;;;9848818;30;20266;-83
2023/03/01 08:34:35;;;;;;;20.60;10.60;;;3.00;99.90;;;;;;9898507;30;20236;-90
2023/03/01 08:39:56;;;;;;;20.43;10.77;;;3.10;99.90;;;;;;9852151;30;20214;-87
2023/03/01 08:45:19;;;;;;;15.63;8.93;;;3.10;99.90;;;;;;9854323;30;20346;-87
2023/03/01 08:50:41;;;;;;;16.37;9.13;;;3.20;99.90;;;;;;9848577;30;20726;-88
2023/03/01 08:56:02;;;;;;;27.83;13.97;;;3.40;99.90;;;;;;9873497;29;20214;-87
2023/03/01 09:01:24;;;;;;;20.57;10.40;;;3.50;99.90;;;;;;9868920;30;20295;-85
2023/03/01 09:06:46;;;;;;;18.63;10.43;;;3.60;99.90;;;;;;9881294;30;20266;-83
2023/03/01 09:12:51;;;;;;;22.53;12.40;;;3.50;99.90;;;;;;9892537;30;20214;-93
2023/03/01 09:18:32;;;;;;;25.53;13.80;;;3.50;99.90;;;;;;9875913;30;20215;-86
2023/03/01 09:23:56;;;;;;;23.00;10.23;;;3.60;99.90;;;;;;9869516;30;20226;-86
2023/03/01 09:29:24;;;;;;;20.53;10.53;;;3.80;99.90;;;;;;9886074;30;20259;-90
2023/03/01 09:35:03;;;;;;;26.40;13.50;;;3.90;99.90;;;;;;9883276;30;20236;-91
2023/03/01 09:40:29;;;;;;;22.13;11.70;;;3.90;99.90;;;;;;9875693;30;21687;-92
2023/03/01 09:45:54;;;;;;;15.30;8.97;;;3.80;99.90;;;;;;9884991;30;20305;-89
2023/03/01 09:51:32;;;;;;;21.67;10.63;;;3.80;99.90;;;;;;9889875;30;20448;-89
2023/03/01 09:57:35;;;;;;;18.00;10.43;;;3.80;99.90;;;;;;9893656;29;20189;-87
2023/03/01 10:03:22;;;;;;;20.90;10.47;;;3.80;99.90;;;;;;9909516;29;20199;-88
2023/03/01 10:09:24;;;;;;;18.87;11.27;;;3.80;99.90;;;;;;9871178;30;20213;-85
2023/03/01 10:15:14;;;;;;;19.33;10.47;;;4.10;99.90;;;;;;9856106;30;20217;-88
2023/03/01 10:20:59;;;;;;;22.50;11.63;;;4.30;99.90;;;;;;9875862;30;20220;-87
2023/03/01 10:26:31;;;;;;;23.47;10.93;;;4.30;99.90;;;;;;9882341;30;20252;-86
2023/03/01 10:31:57;;;;;;;22.20;11.83;;;4.40;99.90;;;;;;9897982;30;20208;-82
2023/03/01 10:37:25;;;;;;;23.67;12.73;;;4.30;99.90;;;;;;9970549;24;20236;-84
2023/03/01 10:42:49;;;;;;;22.63;10.77;;;4.20;99.90;;;;;;9874412;30;20197;-86
2023/03/01 10:48:26;;;;;;;19.93;10.73;;;4.20;99.90;;;;;;9833990;30;20249;-85
2023/03/01 10:53:51;;;;;;;28.40;13.97;;;4.30;99.90;;;;;;9875082;30;20227;-86
2023/03/01 10:59:41;;;;;;;22.07;12.70;;;4.20;99.90;;;;;;9909800;30;20220;-85
2023/03/01 11:05:12;;;;;;;35.33;17.67;;;4.20;99.90;;;;;;9932487;29;20238;-85
2023/03/01 11:10:37;;;;;;;36.93;20.67;;;4.20;99.90;;;;;;9878380;30;20229;-86
2023/03/01 11:16:12;;;;;;;52.83;31.93;;;4.30;99.90;;;;;;9877925;30;20212;-84
2023/03/01 11:21:40;;;;;;;29.13;17.13;;;4.30;99.90;;;;;;9902562;30;20208;-89
2023/03/01 11:27:37;;;;;;;23.77;13.37;;;4.30;99.90;;;;;;9848426;30;20315;-84
2023/03/01 11:33:39;;;;;;;19.87;12.10;;;4.50;99.90;;;;;;9866478;30;20200;-86
2023/03/01 11:39:31;;;;;;;19.43;11.93;;;4.60;99.90;;;;;;9888317;30;20300;-86
2023/03/01 11:44:55;;;;;;;24.93;13.53;;;4.70;99.90;;;;;;9907503;30;20254;-88
2023/03/01 11:50:23;;;;;;;24.37;12.33;;;4.70;99.90;;;;;;9909331;30;20208;-85
2023/03/01 11:56:15;;;;;;;18.13;10.93;;;4.70;99.90;;;;;;9874531;30;20291;-86
2023/03/01 12:01:42;;;;;;;20.63;12.50;;;4.80;99.90;;;;;;9917239;30;20206;-91
2023/03/01 12:07:21;;;;;;;22.40;12.43;;;4.90;99.90;;;;;;9883777;29;20320;-86
2023/03/01 12:13:00;;;;;;;28.77;15.53;;;5.10;99.90;;;;;;9862444;30;20217;-85
2023/03/01 12:18:30;;;;;;;20.50;11.40;;;5.10;99.90;;;;;;9874811;30;20236;-84
2023/03/01 12:23:58;;;;;;;15.70;9.33;;;5.20;99.90;;;;;;9850366;30;20317;-86
2023/03/01 12:29:25;;;;;;;21.00;11.30;;;5.40;99.90;;;;;;9874609;30;20327;-84
2023/03/01 12:35:12;;;;;;;18.50;11.23;;;5.50;99.90;;;;;;9866813;30;20237;-87
2023/03/01 12:41:06;;;;;;;17.57;10.80;;;5.60;99.90;;;;;;9809914;30;20251;-87
2023/03/01 12:46:42;;;;;;;22.00;12.37;;;5.70;99.90;;;;;;9824198;30;20313;-87
2023/03/01 12:52:37;;;;;;;19.43;11.73;;;5.70;99.90;;;;;;9837842;30;20221;-87
2023/03/01 12:58:09;;;;;;;19.43;10.70;;;5.80;99.90;;;;;;9843667;30;20210;-85
2023/03/01 13:03:54;;;;;;;20.70;11.27;;;5.70;99.90;;;;;;9858839;30;20597;-86
2023/03/01 13:09:45;;;;;;;17.60;10.53;;;5.80;99.90;;;;;;9840538;30;20239;-84
2023/03/01 13:15:37;;;;;;;21.00;12.47;;;5.60;99.90;;;;;;9854203;30;20213;-85
2023/03/01 13:21:01;;;;;;;16.00;9.23;;;5.50;99.90;;;;;;9842228;30;20201;-87
2023/03/01 13:26:21;;;;;;;19.43;11.33;;;5.40;99.90;;;;;;9847220;30;20245;-83
2023/03/01 13:31:56;;;;;;;18.73;10.17;;;5.30;99.90;;;;;;9825887;30;20228;-84
2023/03/01 13:37:33;;;;;;;18.57;10.43;;;5.30;99.90;;;;;;9839082;30;20566;-87
2023/03/01 13:42:55;;;;;;;15.33;9.43;;;5.30;99.90;;;;;;9837285;30;20225;-86
2023/03/01 13:48:30;;;;;;;19.17;10.90;;;5.40;99.90;;;;;;9840310;30;20663;-84
2023/03/01 13:53:54;;;;;;;23.57;13.67;;;5.40;99.90;;;;;;9850179;30;20558;-88
2023/03/01 13:59:21;;;;;;;20.97;12.53;;;5.40;99.90;;;;;;9841465;30;20503;-87
2023/03/01 14:04:42;;;;;;;18.80;12.60;;;5.30;99.90;;;;;;9842252;30;20230;-86
2023/03/01 14:10:06;;;;;;;16.23;11.27;;;5.30;99.90;;;;;;9852223;30;20210;-81
2023/03/01 14:15:38;;;;;;;20.10;12.57;;;5.20;99.90;;;;;;9862273;30;20251;-84
2023/03/01 14:20:59;;;;;;;14.57;9.70;;;5.20;99.90;;;;;;9877616;30;20212;-86
2023/03/01 14:26:22;;;;;;;21.20;11.13;;;5.20;99.90;;;;;;9865609;30;20420;-86
2023/03/01 14:31:43;;;;;;;27.60;14.97;;;5.20;99.90;;;;;;9865076;30;20241;-86
2023/03/01 14:37:34;;;;;;;17.60;11.87;;;5.10;99.90;;;;;;9879947;30;20267;-85
2023/03/01 14:42:58;;;;;;;17.93;11.23;;;5.20;99.90;;;;;;9890404;30;20228;-84
2023/03/01 14:48:20;;;;;;;20.10;11.43;;;5.20;99.90;;;;;;9877699;30;20248;-90
2023/03/01 14:53:42;;;;;;;17.93;11.20;;;5.10;99.90;;;;;;9876492;30;20238;-81
2023/03/01 14:59:11;;;;;;;16.53;11.20;;;5.10;99.90;;;;;;9889332;30;20406;-85
2023/03/01 15:04:33;;;;;;;20.63;12.17;;;5.10;99.90;;;;;;9882968;30;20316;-84
2023/03/01 15:09:55;;;;;;;21.33;12.13;;;5.00;99.90;;;;;;9890758;30;20217;-83
2023/03/01 15:15:46;;;;;;;23.10;14.00;;;4.90;99.90;;;;;;9888339;30;20204;-85
2023/03/01 15:21:19;;;;;;;21.47;12.83;;;4.90;99.90;;;;;;9902402;30;20263;-81
2023/03/01 15:26:44;;;;;;;18.33;11.10;;;4.90;99.90;;;;;;9910160;29;20236;-85
2023/03/01 15:32:24;;;;;;;20.63;12.33;;;5.00;99.90;;;;;;9887349;30;20213;-86
2023/03/01 15:37:48;;;;;;;20.13;9.80;;;5.00;99.90;;;;;;9899090;29;20268;-86
2023/03/01 15:43:43;;;;;;;20.97;12.13;;;4.90;99.90;;;;;;9861941;30;20205;-85
2023/03/01 15:49:38;;;;;;;45.33;22.43;;;4.90;99.90;;;;;;9879144;30;20209;-86
2023/03/01 15:55:21;;;;;;;47.20;23.63;;;4.90;99.90;;;;;;9884416;30;20209;-86
2023/03/01 16:00:43;;;;;;;28.53;14.63;;;4.80;99.90;;;;;;9840990;30;20318;-79
2023/03/01 16:06:20;;;;;;;34.83;15.83;;;4.70;99.90;;;;;;9853224;30;20233;-85
2023/03/01 16:11:42;;;;;;;30.23;16.13;;;4.50;99.90;;;;;;9850309;30;20210;-84
2023/03/01 16:17:04;;;;;;;31.43;16.90;;;4.40;99.90;;;;;;9834778;30;20213;-84
2023/03/01 16:22:26;;;;;;;48.20;22.87;;;4.30;99.90;;;;;;9835572;30;20217;-85
2023/03/01 16:27:50;;;;;;;59.20;27.57;;;4.20;99.90;;;;;;9809082;30;20249;-84
2023/03/01 16:33:11;;;;;;;65.00;28.70;;;4.10;99.90;;;;;;9822426;30;20215;-84
2023/03/01 16:38:44;;;;;;;52.50;27.67;;;4.00;99.90;;;;;;9811230;30;20251;-84
2023/03/01 16:44:09;;;;;;;67.07;30.00;;;3.90;99.90;;;;;;9847836;30;20227;-84
2023/03/01 16:49:30;;;;;;;69.93;30.53;;;3.80;99.90;;;;;;9835795;30;20239;-84
2023/03/01 16:54:51;;;;;;;39.93;22.40;;;3.70;99.90;;;;;;9847098;30;20204;-83
2023/03/01 17:00:14;;;;;;;31.47;18.57;;;3.70;99.90;;;;;;9823645;30;20206;-83
2023/03/01 17:05:39;;;;;;;27.00;17.40;;;3.70;99.90;;;;;;9856606;30;20253;-83
2023/03/01 17:11:12;;;;;;;25.70;15.47;;;3.70;99.90;;;;;;9843050;30;20473;-83
2023/03/01 17:16:35;;;;;;;30.97;16.00;;;3.50;99.90;;;;;;9823359;30;20226;-85
2023/03/01 17:21:56;;;;;;;28.30;15.17;;;3.50;99.90;;;;;;9797449;30;20210;-83
2023/03/01 17:27:18;;;;;;;30.03;17.33;;;3.50;99.90;;;;;;9831951;30;20324;-82
2023/03/01 17:32:39;;;;;;;42.40;22.33;;;3.40;99.90;;;;;;9834730;30;20236;-82
2023/03/01 17:38:01;;;;;;;43.77;22.43;;;3.30;99.90;;;;;;9845906;30;20284;-86
2023/03/01 17:43:22;;;;;;;43.80;24.00;;;3.30;99.90;;;;;;9819704;30;20213;-83
2023/03/01 17:48:43;;;;;;;41.63;22.70;;;3.20;99.90;;;;;;9833453;30;20239;-83
2023/03/01 17:54:05;;;;;;;37.93;20.80;;;3.20;99.90;;;;;;9845542;30;20409;-83
2023/03/01 17:59:30;;;;;;;34.87;19.47;;;3.10;99.90;;;;;;9848386;30;20222;-85
2023/03/01 18:04:52;;;;;;;35.53;21.37;;;3.10;99.90;;;;;;9836332;30;20241;-83
2023/03/01 18:10:13;;;;;;;42.23;23.53;;;3.00;99.90;;;;;;9860064;30;20210;-84
2023/03/01 18:15:35;;;;;;;55.40;32.03;;;3.00;99.90;;;;;;9828543;30;20473;-84
2023/03/01 18:20:58;;;;;;;94.80;49.57;;;2.90;99.90;;;;;;9820727;30;20217;-84
2023/03/01 18:26:21;;;;;;;120.97;63.53;;;2.80;99.90;;;;;;9843189;30;20289;-83
2023/03/01 18:31:42;;;;;;;141.80;64.13;;;2.60;99.90;;;;;;9887583;29;20211;-85
2023/03/01 18:37:03;;;;;;;154.13;69.83;;;2.50;99.90;;;;;;9849445;30;20251;-84
2023/03/01 18:42:31;;;;;;;153.67;76.80;;;2.60;99.90;;;;;;9855732;30;20530;-84
2023/03/01 18:47:53;;;;;;;180.50;82.30;;;2.60;99.90;;;;;;9856831;30;20262;-84
2023/03/01 18:53:14;;;;;;;116.17;54.83;;;2.80;99.90;;;;;;9843838;30;20209;-84
2023/03/01 18:58:36;;;;;;;55.90;31.53;;;2.80;99.90;;;;;;9826375;30;20224;-84
2023/03/01 19:03:58;;;;;;;43.83;24.97;;;2.90;99.90;;;;;;9840661;30;20524;-84
2023/03/01 19:09:19;;;;;;;40.10;23.53;;;2.90;99.90;;;;;;9839645;30;20252;-84
2023/03/01 19:14:41;;;;;;;61.30;36.33;;;2.90;99.90;;;;;;9834629;30;20314;-84
2023/03/01 19:20:02;;;;;;;64.23;41.23;;;3.00;99.90;;;;;;9838267;30;20226;-84
2023/03/01 19:25:23;;;;;;;50.07;27.27;;;3.10;99.90;;;;;;9842615;30;20247;-84
2023/03/01 19:30:45;;;;;;;47.73;24.63;;;3.10;99.90;;;;;;9843036;30;20261;-85
2023/03/01 19:36:11;;;;;;;50.73;27.43;;;3.10;99.90;;;;;;9844257;30;20284;-84
2023/03/01 19:41:33;;;;;;;36.47;21.57;;;3.00;99.90;;;;;;9868709;30;20232;-83
2023/03/01 19:46:56;;;;;;;35.43;21.53;;;3.00;99.90;;;;;;9815077;30;20232;-83
2023/03/01 19:52:17;;;;;;;32.60;17.80;;;3.00;99.90;;;;;;9841449;30;20284;-83
2023/03/01 19:57:38;;;;;;;24.50;15.33;;;3.10;99.90;;;;;;9841435;30;20204;-83
2023/03/01 20:03:00;;;;;;;25.40;14.73;;;3.00;99.90;;;;;;9862789;30;20214;-83
2023/03/01 20:08:22;;;;;;;23.83;12.90;;;3.10;99.90;;;;;;9849293;30;20317;-84
2023/03/01 20:13:44;;;;;;;25.87;16.27;;;3.10;99.90;;;;;;9861995;30;20213;-84
2023/03/01 20:19:06;;;;;;;28.97;16.27;;;3.10;99.90;;;;;;9833255;30;20216;-84
2023/03/01 20:24:27;;;;;;;18.57;11.63;;;3.00;99.90;;;;;;9858565;30;20212;-84
2023/03/01 20:29:48;;;;;;;23.30;14.30;;;2.90;99.90;;;;;;9841535;30;20204;-84
2023/03/01 20:35:10;;;;;;;24.80;13.00;;;2.70;99.90;;;;;;9840544;30;20217;-83
2023/03/01 20:40:31;;;;;;;20.03;12.33;;;2.60;99.90;;;;;;9865689;30;20554;-83
2023/03/01 20:45:53;;;;;;;21.90;14.47;;;2.50;99.90;;;;;;9811015;30;20266;-83
2023/03/01 20:51:14;;;;;;;27.13;14.77;;;2.50;99.90;;;;;;9860627;30;20240;-82
2023/03/01 20:56:36;;;;;;;23.50;12.97;;;2.50;99.90;;;;;;9881598;30;20228;-83
2023/03/01 21:01:57;;;;;;;29.27;17.83;;;2.60;99.90;;;;;;9866295;30;20231;-82
2023/03/01 21:07:18;;;;;;;32.63;19.93;;;2.50;99.90;;;;;;9849611;30;20231;-83
2023/03/01 21:12:40;;;;;;;19.87;12.83;;;2.60;99.90;;;;;;9874506;30;20222;-83
2023/03/01 21:18:01;;;;;;;13.07;8.87;;;2.60;99.90;;;;;;9851540;30;20231;-83
2023/03/01 21:23:22;;;;;;;22.10;12.73;;;2.40;99.90;;;;;;9849327;30;20249;-83
2023/03/01 21:28:49;;;;;;;29.67;16.80;;;2.40;99.90;;;;;;9861233;30;20236;-83
2023/03/01 21:34:12;;;;;;;24.43;15.60;;;2.40;99.90;;;;;;9826700;30;20220;-83
2023/03/01 21:39:36;;;;;;;16.03;10.93;;;2.40;99.90;;;;;;9819673;30;20257;-83
2023/03/01 21:44:59;;;;;;;18.60;10.10;;;2.40;99.90;;;;;;9831267;30;20228;-83
2023/03/01 21:50:22;;;;;;;24.30;12.30;;;2.40;99.90;;;;;;9850551;30;20238;-83
2023/03/01 21:55:48;;;;;;;31.23;13.47;;;2.40;99.90;;;;;;9858947;30;20206;-83
2023/03/01 22:01:15;;;;;;;16.20;8.90;;;2.40;99.90;;;;;;9869958;30;20268;-83
2023/03/01 22:06:39;;;;;;;14.60;8.70;;;2.40;99.90;;;;;;9858545;30;20240;-83
2023/03/01 22:12:09;;;;;;;12.57;8.10;;;2.50;99.90;;;;;;9878993;30;20200;-83
2023/03/01 22:17:45;;;;;;;7.63;5.40;;;2.40;99.90;;;;;;9841382;30;20226;-82
2023/03/01 22:23:08;;;;;;;9.50;6.60;;;2.40;99.90;;;;;;9867383;30;20553;-83
2023/03/01 22:28:31;;;;;;;13.70;7.80;;;2.50;99.90;;;;;;9861631;30;20234;-83
2023/03/01 22:33:54;;;;;;;10.93;6.83;;;2.50;99.90;;;;;;9857834;30;20204;-84
2023/03/01 22:39:18;;;;;;;12.70;7.07;;;2.50;99.90;;;;;;9850858;30;20248;-83
2023/03/01 22:44:54;;;;;;;12.07;6.67;;;2.50;99.90;;;;;;9844199;30;20209;-84
2023/03/01 22:50:15;;;;;;;16.67;7.63;;;2.50;99.90;;;;;;9824253;30;20264;-83
2023/03/01 22:55:37;;;;;;;14.40;7.67;;;2.50;99.90;;;;;;9856311;30;20204;-83
2023/03/01 23:00:58;;;;;;;12.30;7.10;;;2.40;99.90;;;;;;9855407;30;20253;-83
2023/03/01 23:06:21;;;;;;;17.13;10.60;;;2.30;99.90;;;;;;9856428;30;20451;-81
2023/03/01 23:11:43;;;;;;;17.03;9.37;;;2.30;99.90;;;;;;9843589;30;20254;-82
2023/03/01 23:17:06;;;;;;;14.27;8.20;;;2.30;99.90;;;;;;9851072;30;20243;-81
2023/03/01 23:22:29;;;;;;;18.47;7.60;;;2.30;99.90;;;;;;9862658;30;20234;-83
2023/03/01 23:27:52;;;;;;;12.23;6.93;;;2.30;99.90;;;;;;9861936;30;20219;-82
2023/03/01 23:33:13;;;;;;;9.70;5.50;;;2.30;99.90;;;;;;9841302;30;20291;-84
2023/03/01 23:38:35;;;;;;;9.27;4.80;;;2.30;99.90;;;;;;9828933;30;20331;-83
2023/03/01 23:43:58;;;;;;;9.87;5.30;;;2.40;99.90;;;;;;9892399;30;20219;-83
2023/03/01 23:49:21;;;;;;;10.80;6.70;;;2.30;99.90;;;;;;9866715;30;20254;-83
2023/03/01 23:54:42;;;;;;;13.43;7.87;;;2.30;99.90;;;;;;9828175;30;20506;-83
